createdAt,value
2019-03-20T00:03:06.479Z,10.33
2019-03-20T00:07:09.475Z,7.57
2019-03-20T00:11:13.559Z,14.97
2019-03-20T00:15:16.604Z,15.17
2019-03-20T00:19:19.756Z,13.80
2019-03-20T00:23:22.748Z,16.47
2019-03-20T00:27:25.819Z,12.47
2019-03-20T00:31:28.924Z,10.23
2019-03-20T00:35:31.920Z,10.83
2019-03-20T00:39:35.008Z,10.97
2019-03-20T00:43:38.021Z,14.93
2019-03-20T00:47:43.342Z,9.47
2019-03-20T00:51:46.357Z,13.83
2019-03-20T00:55:49.355Z,11.33
2019-03-20T00:59:52.443Z,9.90
2019-03-20T01:03:55.445Z,10.43
2019-03-20T01:07:58.440Z,8.87
2019-03-20T01:12:01.426Z,9.67
2019-03-20T01:16:04.424Z,15.47
2019-03-20T01:20:15.627Z,10.60
2019-03-20T01:24:18.715Z,13.30
2019-03-20T01:28:21.707Z,11.13
2019-03-20T01:32:24.817Z,12.07
2019-03-20T01:36:27.811Z,10.70
2019-03-20T01:40:30.946Z,13.60
2019-03-20T01:44:34.007Z,12.20
2019-03-20T01:48:38.548Z,13.33
2019-03-20T01:52:41.634Z,14.90
2019-03-20T01:56:44.640Z,13.13
2019-03-20T02:00:47.632Z,13.00
2019-03-20T02:04:50.631Z,14.00
2019-03-20T02:08:53.725Z,15.83
2019-03-20T02:12:58.682Z,11.70
2019-03-20T02:17:01.644Z,12.43
2019-03-20T02:21:04.643Z,12.33
2019-03-20T02:25:09.155Z,12.40
2019-03-20T02:29:12.162Z,13.40
2019-03-20T02:33:15.286Z,14.43
2019-03-20T02:37:18.279Z,12.20
2019-03-20T02:41:21.279Z,9.87
2019-03-20T02:45:24.298Z,13.37
2019-03-20T02:49:28.368Z,15.93
2019-03-20T02:53:32.397Z,11.87
2019-03-20T02:57:35.401Z,11.47
2019-03-20T03:01:38.403Z,15.00
2019-03-20T03:05:41.417Z,17.10
2019-03-20T03:09:44.407Z,10.53
2019-03-20T03:13:47.428Z,13.50
2019-03-20T03:17:50.434Z,14.30
2019-03-20T03:21:53.440Z,10.90
2019-03-20T03:25:56.456Z,10.93
2019-03-20T03:29:59.463Z,10.07
2019-03-20T03:34:02.475Z,13.80
2019-03-20T03:38:05.468Z,12.57
2019-03-20T03:42:08.562Z,12.33
2019-03-20T03:46:11.563Z,12.47
2019-03-20T03:50:15.525Z,11.80
2019-03-20T03:54:18.532Z,15.17
2019-03-20T03:58:21.534Z,11.87
2019-03-20T04:02:24.540Z,11.93
2019-03-20T04:06:35.507Z,12.47
2019-03-20T04:10:32.519Z,18.67
2019-03-20T04:14:35.567Z,9.40
2019-03-20T04:18:38.674Z,12.27
2019-03-20T04:22:41.680Z,14.17
2019-03-20T04:26:44.682Z,16.80
2019-03-20T04:30:47.663Z,12.03
2019-03-20T04:34:50.703Z,14.17
2019-03-20T04:38:53.684Z,12.37
2019-03-20T04:42:56.679Z,13.57
2019-03-20T04:47:02.740Z,13.87
2019-03-20T04:51:07.228Z,13.07
2019-03-20T04:55:11.583Z,12.60
2019-03-20T04:59:14.578Z,14.53
2019-03-20T05:03:17.578Z,14.90
2019-03-20T05:07:20.669Z,11.83
2019-03-20T05:11:23.772Z,14.43
2019-03-20T05:15:26.806Z,11.93
2019-03-20T05:19:29.998Z,11.40
2019-03-20T05:23:32.994Z,15.30
2019-03-20T05:27:36.089Z,26.07
2019-03-20T05:31:39.095Z,21.33
2019-03-20T05:35:44.090Z,22.63
2019-03-20T05:39:47.097Z,17.17
2019-03-20T05:43:50.196Z,17.37
2019-03-20T05:47:54.292Z,17.50
2019-03-20T05:51:59.643Z,13.30
2019-03-20T05:56:02.741Z,12.10
2019-03-20T06:00:09.150Z,16.40
2019-03-20T06:04:12.272Z,15.07
2019-03-20T06:08:15.279Z,15.63
2019-03-20T06:12:20.368Z,10.80
2019-03-20T06:16:23.367Z,14.33
2019-03-20T06:20:26.371Z,15.23
2019-03-20T06:24:29.362Z,18.57
2019-03-20T06:28:32.371Z,12.03
2019-03-20T06:32:35.469Z,12.17
2019-03-20T06:36:38.458Z,10.77
2019-03-20T06:40:43.522Z,11.13
2019-03-20T06:44:46.644Z,14.50
2019-03-20T06:48:49.631Z,13.17
2019-03-20T06:52:53.018Z,11.40
2019-03-20T06:56:56.087Z,10.40
2019-03-20T07:01:14.446Z,13.23
2019-03-20T07:05:44.100Z,14.50
2019-03-20T07:09:57.165Z,14.13
2019-03-20T07:14:00.214Z,13.70
2019-03-20T07:18:03.260Z,12.63
2019-03-20T07:22:06.268Z,13.37
2019-03-20T07:26:09.269Z,14.73
2019-03-20T07:30:12.327Z,12.57
2019-03-20T07:34:15.433Z,13.37
2019-03-20T07:38:18.535Z,14.33
2019-03-20T07:42:21.612Z,11.40
2019-03-20T07:46:24.710Z,11.70
2019-03-20T07:50:27.808Z,11.30
2019-03-20T07:54:31.909Z,12.63
2019-03-20T07:58:35.252Z,12.03
2019-03-20T08:02:38.350Z,8.90
2019-03-20T08:06:41.499Z,10.70
2019-03-20T08:10:44.548Z,10.13
2019-03-20T08:14:47.660Z,11.60
2019-03-20T08:18:50.729Z,10.80
2019-03-20T08:22:54.794Z,10.53
2019-03-20T08:26:57.925Z,9.93
2019-03-20T08:31:01.000Z,9.73
2019-03-20T08:35:06.565Z,9.63
2019-03-20T08:39:09.741Z,9.80
2019-03-20T08:43:12.953Z,12.67
2019-03-20T08:47:16.027Z,9.27
2019-03-20T08:51:19.102Z,14.93
2019-03-20T08:55:23.111Z,9.73
2019-03-20T08:59:26.302Z,8.83
2019-03-20T09:03:29.299Z,8.90
2019-03-20T09:07:33.383Z,8.73
2019-03-20T09:11:36.492Z,9.20
2019-03-20T09:15:39.561Z,9.80
2019-03-20T09:19:42.680Z,11.27
2019-03-20T09:23:45.787Z,9.13
2019-03-20T09:27:49.119Z,11.70
2019-03-20T09:31:52.185Z,9.97
2019-03-20T09:35:55.207Z,13.13
2019-03-20T09:39:58.280Z,14.60
2019-03-20T09:44:01.381Z,14.93
2019-03-20T09:55:54.629Z,9.00
2019-03-20T09:59:57.633Z,11.07
2019-03-20T10:04:00.675Z,7.67
2019-03-20T10:08:03.676Z,10.13
2019-03-20T10:12:06.806Z,9.37
2019-03-20T10:16:09.913Z,7.43
2019-03-20T10:24:02.431Z,6.43
2019-03-20T10:28:05.434Z,5.90
2019-03-20T10:32:08.443Z,7.20
2019-03-20T10:36:11.463Z,7.93
2019-03-20T10:40:19.353Z,8.73
2019-03-20T10:44:22.368Z,5.33
2019-03-20T10:48:25.487Z,5.67
2019-03-20T10:52:28.511Z,6.57
2019-03-20T10:56:32.655Z,6.23
2019-03-20T11:00:35.663Z,7.27
2019-03-20T11:04:38.697Z,8.17
2019-03-20T11:08:41.706Z,7.97
2019-03-20T11:12:45.050Z,6.57
2019-03-20T11:16:48.075Z,5.80
2019-03-20T11:20:53.521Z,5.63
2019-03-20T11:24:56.054Z,9.60
2019-03-20T11:28:59.053Z,8.30
2019-03-20T11:33:02.176Z,6.27
2019-03-20T11:37:05.179Z,5.97
2019-03-20T11:41:08.177Z,7.00
2019-03-20T11:45:11.492Z,5.73
2019-03-20T11:49:14.563Z,7.00
2019-03-20T11:53:17.564Z,7.40
2019-03-20T11:57:21.745Z,6.33
2019-03-20T12:01:24.829Z,4.90
2019-03-20T12:05:27.822Z,4.87
2019-03-20T12:09:40.681Z,5.57
2019-03-20T12:13:35.898Z,6.90
2019-03-20T12:17:38.911Z,7.57
2019-03-20T12:21:41.961Z,7.37
2019-03-20T12:25:44.997Z,6.97
2019-03-20T12:29:48.003Z,4.70
2019-03-20T12:33:51.118Z,5.47
2019-03-20T12:37:54.212Z,5.23
2019-03-20T12:41:57.210Z,5.60
2019-03-20T12:46:00.223Z,7.00
2019-03-20T12:50:07.043Z,6.53
2019-03-20T12:54:10.073Z,5.37
2019-03-20T12:58:14.695Z,6.23
2019-03-20T13:02:17.707Z,7.20
2019-03-20T13:06:20.739Z,5.60
2019-03-20T13:10:24.915Z,5.33
2019-03-20T13:14:27.952Z,9.77
2019-03-20T13:18:30.948Z,5.20
2019-03-20T13:22:33.987Z,7.63
2019-03-20T13:26:37.004Z,5.50
2019-03-20T13:30:52.342Z,9.43
2019-03-20T13:34:55.340Z,26.77
2019-03-20T13:38:58.430Z,39.57
2019-03-20T13:43:01.679Z,6.10
2019-03-20T13:47:04.837Z,6.13
2019-03-20T13:51:07.863Z,7.53
2019-03-20T13:55:12.673Z,5.50
2019-03-20T13:59:16.241Z,5.20
2019-03-20T14:03:19.283Z,6.93
2019-03-20T14:07:22.392Z,4.97
2019-03-20T14:11:25.388Z,4.77
2019-03-20T14:15:28.477Z,4.97
2019-03-20T14:19:31.562Z,4.37
2019-03-20T14:23:34.573Z,8.43
2019-03-20T14:27:38.048Z,4.90
2019-03-20T14:31:41.080Z,6.20
2019-03-20T14:35:44.189Z,5.40
2019-03-20T14:39:47.192Z,5.13
2019-03-20T14:43:50.196Z,5.40
2019-03-20T14:47:53.216Z,6.30
2019-03-20T14:51:56.229Z,4.27
2019-03-20T14:55:59.226Z,4.23
2019-03-20T15:00:10.496Z,6.57
2019-03-20T15:04:13.674Z,5.53
2019-03-20T15:08:16.866Z,6.67
2019-03-20T15:12:20.064Z,6.53
2019-03-20T15:16:23.188Z,4.80
2019-03-20T15:20:26.319Z,5.37
2019-03-20T15:24:29.591Z,5.80
2019-03-20T15:28:32.826Z,4.87
2019-03-20T15:32:36.370Z,7.57
2019-03-20T15:36:39.623Z,5.87
2019-03-20T15:40:42.872Z,8.13
2019-03-20T15:44:46.070Z,5.80
2019-03-20T15:48:49.218Z,5.63
2019-03-20T15:52:52.481Z,5.43
2019-03-20T15:56:56.134Z,4.87
2019-03-20T16:01:00.337Z,5.50
2019-03-20T16:05:05.387Z,7.97
2019-03-20T16:09:08.571Z,6.17
2019-03-20T16:13:11.891Z,9.83
2019-03-20T16:17:15.067Z,6.60
2019-03-20T16:21:18.317Z,7.40
2019-03-20T16:25:23.364Z,8.67
2019-03-20T16:29:26.437Z,5.83
2019-03-20T16:33:29.635Z,5.63
2019-03-20T16:37:32.630Z,6.37
2019-03-20T16:41:35.622Z,6.50
2019-03-20T16:45:38.627Z,4.70
2019-03-20T16:49:41.675Z,5.90
2019-03-20T16:53:44.735Z,5.67
2019-03-20T16:57:47.753Z,6.17
2019-03-20T17:01:51.289Z,8.40
2019-03-20T17:05:54.512Z,7.47
2019-03-20T17:09:57.565Z,5.70
2019-03-20T17:14:00.822Z,4.80
2019-03-20T17:18:04.940Z,5.10
2019-03-20T17:22:07.926Z,5.73
2019-03-20T17:26:10.942Z,4.90
2019-03-20T17:30:31.483Z,5.03
2019-03-20T17:34:37.431Z,9.40
2019-03-20T17:38:43.422Z,7.20
2019-03-20T17:42:50.284Z,5.50
2019-03-20T17:47:03.167Z,4.60
2019-03-20T17:51:11.562Z,6.83
2019-03-20T17:55:18.401Z,4.30
2019-03-20T17:59:22.366Z,5.10
2019-03-20T18:03:29.778Z,4.47
2019-03-20T18:07:43.632Z,6.23
2019-03-20T18:11:50.682Z,6.43
2019-03-20T18:15:57.057Z,8.83
2019-03-20T18:20:00.809Z,8.07
2019-03-20T18:24:09.025Z,7.47
2019-03-20T18:28:12.733Z,5.90
2019-03-20T18:32:16.668Z,10.87
2019-03-20T18:36:24.701Z,11.10
2019-03-20T18:40:32.718Z,10.20
2019-03-20T18:44:42.861Z,9.10
2019-03-20T18:48:49.273Z,9.00
2019-03-20T18:52:53.623Z,11.43
2019-03-20T18:56:57.683Z,12.40
2019-03-20T19:01:00.865Z,14.30
2019-03-20T19:05:10.327Z,19.60
2019-03-20T19:09:13.513Z,19.87
2019-03-20T19:13:16.616Z,13.90
2019-03-20T19:17:19.602Z,14.33
2019-03-20T19:21:22.665Z,12.70
2019-03-20T19:25:25.864Z,13.00
2019-03-20T19:29:28.861Z,11.73
2019-03-20T19:33:31.875Z,16.03
2019-03-20T19:37:34.897Z,14.90
2019-03-20T19:41:37.903Z,12.13
2019-03-20T19:45:40.904Z,14.23
2019-03-20T19:49:43.974Z,18.23
2019-03-20T19:53:46.993Z,16.37
2019-03-20T19:57:50.003Z,18.03
2019-03-20T20:01:53.020Z,14.33
2019-03-20T20:05:56.614Z,10.73
2019-03-20T20:09:59.609Z,10.63
2019-03-20T20:14:02.809Z,11.20
2019-03-20T20:18:05.812Z,9.43
2019-03-20T20:22:08.826Z,10.70
2019-03-20T20:26:11.821Z,7.40
2019-03-20T20:30:17.241Z,10.20
2019-03-20T20:34:20.298Z,11.93
2019-03-20T20:38:23.422Z,10.70
2019-03-20T20:42:26.513Z,9.43
2019-03-20T20:46:29.588Z,10.43
2019-03-20T20:50:32.739Z,8.23
2019-03-20T20:54:35.872Z,7.57
2019-03-20T20:58:38.865Z,9.73
2019-03-20T21:02:41.865Z,10.00
2019-03-20T21:06:45.876Z,9.50
2019-03-20T21:10:48.874Z,12.90
2019-03-20T21:14:51.861Z,14.73
2019-03-20T21:19:19.755Z,11.20
2019-03-20T21:23:38.698Z,28.37
2019-03-20T21:28:14.024Z,11.83
2019-03-20T21:32:35.933Z,11.97
2019-03-20T21:37:17.575Z,12.10
2019-03-20T21:41:30.399Z,10.67
2019-03-20T21:45:54.794Z,9.90
2019-03-20T21:49:59.947Z,10.43
2019-03-20T21:54:32.614Z,12.33
2019-03-20T21:58:39.335Z,7.40
2019-03-20T22:02:43.146Z,8.73
2019-03-20T22:07:06.855Z,8.43
2019-03-20T22:11:32.698Z,8.13
2019-03-20T22:16:05.702Z,6.73
2019-03-20T22:20:27.916Z,7.63
2019-03-20T22:25:08.406Z,8.47
2019-03-20T22:29:24.389Z,7.57
2019-03-20T22:34:05.124Z,8.63
2019-03-20T22:38:11.910Z,14.80
2019-03-20T22:42:24.207Z,8.90
2019-03-20T22:46:31.011Z,8.47
2019-03-20T22:50:43.269Z,9.93
2019-03-20T22:55:12.688Z,12.63
2019-03-20T22:59:15.691Z,13.63
2019-03-20T23:03:25.374Z,11.50
2019-03-20T23:07:28.977Z,10.57
2019-03-20T23:11:31.956Z,11.97
2019-03-20T23:15:36.640Z,10.53
2019-03-20T23:19:42.955Z,11.37
2019-03-20T23:23:48.842Z,12.30
2019-03-20T23:27:51.881Z,13.83
2019-03-20T23:31:54.947Z,13.40
2019-03-20T23:35:57.944Z,13.30
2019-03-20T23:40:00.924Z,15.10
2019-03-20T23:44:03.936Z,17.33
2019-03-20T23:48:13.755Z,13.40
2019-03-20T23:52:16.736Z,12.70
2019-03-20T23:56:20.236Z,12.50
